Time;durP1;ratioP1;P1;durP2;ratioP2;P2;SDS_P1;SDS_P2;PMS_P1;PMS_P2;Temp;Humidity;BMP_temperature;BMP_pressure;BME280_temperature;BME280_humidity;BME280_pressure;Samples;Min_cycle;Max_cycle;Signal;HPM_P1;HPM_P2
2022/09/15 00:01:14;;;;;;;6.03;2.40;;;13.80;99.90;;;;;;5054227;28;20561;-62
2022/09/15 00:03:40;;;;;;;5.40;3.17;;;13.90;99.90;;;;;;5055411;28;20045;-62
2022/09/15 00:06:07;;;;;;;6.03;3.72;;;13.80;99.90;;;;;;5054263;28;20039;-62
2022/09/15 00:08:33;;;;;;;8.70;4.88;;;13.90;99.90;;;;;;5055338;28;20039;-62
2022/09/15 00:11:05;;;;;;;7.25;4.28;;;13.90;99.90;;;;;;5055744;28;20111;-63
2022/09/15 00:13:32;;;;;;;13.45;4.88;;;14.10;99.90;;;;;;5054336;28;20048;-62
2022/09/15 00:15:57;;;;;;;10.50;5.05;;;13.90;99.90;;;;;;5054486;28;20037;-62
2022/09/15 00:18:24;;;;;;;6.57;4.75;;;14.20;99.90;;;;;;5054047;28;20364;-60
2022/09/15 00:20:49;;;;;;;9.20;3.67;;;14.20;99.90;;;;;;5055466;28;20029;-62
2022/09/15 00:23:16;;;;;;;10.70;3.80;;;14.30;99.90;;;;;;5037559;28;20037;-62
2022/09/15 00:25:46;;;;;;;8.60;3.30;;;14.40;99.90;;;;;;5053872;28;20053;-62
2022/09/15 00:28:13;;;;;;;7.57;2.58;;;14.50;99.90;;;;;;5045964;28;20080;-62
2022/09/15 00:30:41;;;;;;;8.43;2.65;;;14.50;99.90;;;;;;5050901;28;20040;-62
2022/09/15 00:33:06;;;;;;;4.28;2.03;;;14.40;99.90;;;;;;5055317;28;20033;-62
2022/09/15 00:35:36;;;;;;;6.70;2.17;;;14.50;99.90;;;;;;5055002;28;20115;-62
2022/09/15 00:38:02;;;;;;;4.93;1.77;;;14.50;99.90;;;;;;5040486;28;20053;-62
2022/09/15 00:40:27;;;;;;;12.20;2.15;;;14.30;99.90;;;;;;5054852;28;20037;-62
2022/09/15 00:42:53;;;;;;;7.47;2.13;;;14.50;99.90;;;;;;5040789;28;20079;-63
2022/09/15 00:45:18;;;;;;;6.13;2.28;;;14.60;99.90;;;;;;5044575;28;20042;-61
2022/09/15 00:47:44;;;;;;;4.55;2.15;;;14.70;99.90;;;;;;5049256;28;20046;-62
2022/09/15 00:50:17;;;;;;;6.43;1.85;;;14.60;99.90;;;;;;5054916;28;20490;-62
2022/09/15 00:52:47;;;;;;;6.05;1.60;;;14.70;99.90;;;;;;5055087;28;20045;-62
2022/09/15 00:55:28;;;;;;;7.88;1.95;;;14.40;99.90;;;;;;5053204;28;20067;-62
2022/09/15 00:57:58;;;;;;;6.28;1.38;;;14.40;99.90;;;;;;5053693;28;20036;-62
2022/09/15 01:00:27;;;;;;;4.85;1.52;;;14.50;99.90;;;;;;5054384;28;20057;-62
2022/09/15 01:02:53;;;;;;;8.88;1.52;;;14.60;99.90;;;;;;5054644;28;20048;-61
2022/09/15 01:05:26;;;;;;;3.65;1.65;;;14.60;99.90;;;;;;5040131;28;20124;-62
2022/09/15 01:08:05;;;;;;;6.28;1.80;;;14.70;99.90;;;;;;5054775;28;20130;-62
2022/09/15 01:10:37;;;;;;;7.13;1.90;;;14.60;99.90;;;;;;5054359;28;20391;-62
2022/09/15 01:13:06;;;;;;;8.35;2.00;;;14.60;99.90;;;;;;5053207;28;20116;-62
2022/09/15 01:15:43;;;;;;;4.13;1.40;;;14.60;99.90;;;;;;5054628;28;20045;-62
2022/09/15 01:18:39;;;;;;;4.47;1.48;;;14.50;99.90;;;;;;5052881;28;20120;-62
2022/09/15 01:21:22;;;;;;;6.55;1.85;;;14.50;99.90;;;;;;5034420;28;20041;-62
2022/09/15 01:24:13;;;;;;;5.15;1.35;;;14.40;99.90;;;;;;5048176;28;20511;-62
2022/09/15 01:26:56;;;;;;;2.72;1.20;;;14.60;99.90;;;;;;5043605;28;20052;-62
2022/09/15 01:29:43;;;;;;;6.53;1.15;;;14.50;99.90;;;;;;5047829;28;20041;-62
2022/09/15 01:35:23;;;;;;;;;;;14.50;99.90;;;;;;5053184;28;20510;-63
2022/09/15 01:37:56;;;;;;;3.28;1.40;;;14.30;99.90;;;;;;5053666;28;20007;-62
2022/09/15 01:40:27;;;;;;;5.03;1.60;;;14.30;99.90;;;;;;5053647;28;20048;-62
2022/09/15 01:42:54;;;;;;;4.55;1.77;;;14.30;99.90;;;;;;5053768;28;20049;-62
2022/09/15 01:45:26;;;;;;;4.18;1.38;;;14.20;99.90;;;;;;5054169;28;20052;-62
2022/09/15 01:47:55;;;;;;;7.10;1.38;;;14.40;99.90;;;;;;5040621;28;20043;-62
2022/09/15 01:50:30;;;;;;;5.75;1.88;;;14.40;99.90;;;;;;5053478;28;20053;-62
2022/09/15 01:53:01;;;;;;;5.82;1.77;;;14.20;99.90;;;;;;5039902;28;20055;-62
2022/09/15 01:55:56;;;;;;;4.45;1.35;;;14.30;99.90;;;;;;5052263;28;20052;-62
2022/09/15 01:58:22;;;;;;;8.35;1.50;;;14.20;99.90;;;;;;5042690;28;20103;-62
2022/09/15 02:01:14;;;;;;;5.10;1.42;;;14.20;99.90;;;;;;5053225;28;20503;-62
2022/09/15 02:03:46;;;;;;;6.93;1.77;;;14.10;99.90;;;;;;5052199;28;20407;-62
2022/09/15 02:06:43;;;;;;;6.28;1.70;;;14.20;99.90;;;;;;5037792;28;20048;-63
2022/09/15 02:09:09;;;;;;;5.32;1.38;;;14.20;99.90;;;;;;5052621;28;20111;-62
2022/09/15 02:11:39;;;;;;;5.72;1.50;;;14.10;99.90;;;;;;5051821;28;20041;-62
2022/09/15 02:14:38;;;;;;;4.68;1.52;;;14.30;99.90;;;;;;5053152;28;20556;-62
2022/09/15 02:17:04;;;;;;;10.10;1.88;;;14.10;99.90;;;;;;5027223;28;20045;-62
2022/09/15 02:19:34;;;;;;;10.48;2.42;;;14.20;99.90;;;;;;5047550;28;20394;-62
2022/09/15 02:22:26;;;;;;;5.63;1.83;;;14.20;99.90;;;;;;5053163;28;20039;-62
2022/09/15 02:25:02;;;;;;;6.72;1.40;;;14.20;99.90;;;;;;5050189;28;20498;-62
2022/09/15 02:27:33;;;;;;;6.13;1.13;;;14.20;99.90;;;;;;5043469;28;20033;-62
2022/09/15 02:30:04;;;;;;;6.55;1.23;;;14.20;99.90;;;;;;5051576;28;21228;-63
2022/09/15 02:32:33;;;;;;;7.38;1.90;;;14.30;99.90;;;;;;5052913;28;20091;-62
2022/09/15 02:35:05;;;;;;;4.65;1.17;;;14.40;99.90;;;;;;5039106;28;20045;-62
2022/09/15 02:37:32;;;;;;;5.18;1.30;;;14.30;99.90;;;;;;5044171;28;20478;-62
2022/09/15 02:39:58;;;;;;;4.80;1.33;;;14.40;99.90;;;;;;5046481;28;20041;-62
2022/09/15 02:42:30;;;;;;;6.15;1.25;;;14.40;99.90;;;;;;5037432;28;20080;-62
2022/09/15 02:44:56;;;;;;;4.38;1.17;;;14.30;99.90;;;;;;5051377;28;20084;-62
2022/09/15 02:47:22;;;;;;;8.25;1.80;;;14.20;99.90;;;;;;5052686;28;20601;-62
2022/09/15 02:49:48;;;;;;;5.13;1.27;;;14.10;99.90;;;;;;5051489;28;20454;-62
2022/09/15 02:52:14;;;;;;;6.72;1.30;;;14.40;99.90;;;;;;5052411;28;20064;-62
2022/09/15 02:54:39;;;;;;;4.50;1.15;;;14.30;99.90;;;;;;5051381;28;20048;-61
2022/09/15 02:57:05;;;;;;;6.28;1.67;;;14.30;99.90;;;;;;5051291;28;20048;-62
2022/09/15 03:00:11;;;;;;;9.65;1.85;;;14.30;99.90;;;;;;5052354;28;20576;-62
2022/09/15 03:02:19;;;;;;;6.45;1.35;;;14.40;99.90;;;;;;5051253;28;20080;-62
2022/09/15 03:04:48;;;;;;;5.70;1.13;;;14.20;99.90;;;;;;5051334;28;20041;-62
2022/09/15 03:07:14;;;;;;;7.35;1.73;;;14.20;99.90;;;;;;5052740;28;20033;-62
2022/09/15 03:09:40;;;;;;;5.78;1.55;;;14.20;99.90;;;;;;5052460;28;20048;-62
2022/09/15 03:12:06;;;;;;;9.18;1.35;;;14.20;99.90;;;;;;5052539;28;20067;-62
2022/09/15 03:14:32;;;;;;;9.80;1.55;;;14.30;99.90;;;;;;5052424;28;20510;-62
2022/09/15 03:16:59;;;;;;;5.25;1.10;;;14.40;99.90;;;;;;5051364;28;20041;-62
2022/09/15 03:19:24;;;;;;;5.97;1.00;;;14.20;99.90;;;;;;5052324;28;20036;-62
2022/09/15 03:21:50;;;;;;;5.20;1.30;;;14.10;99.90;;;;;;5054114;28;20487;-62
2022/09/15 03:24:18;;;;;;;6.20;1.98;;;14.20;99.90;;;;;;5054894;28;20057;-62
2022/09/15 03:26:44;;;;;;;9.70;2.03;;;14.20;99.90;;;;;;5055024;28;20076;-62
2022/09/15 03:29:10;;;;;;;5.93;1.30;;;14.30;99.90;;;;;;5056382;28;20037;-62
2022/09/15 03:31:35;;;;;;;3.85;0.80;;;14.20;99.90;;;;;;5055055;28;20116;-61
2022/09/15 03:34:01;;;;;;;5.40;1.55;;;14.20;99.90;;;;;;5054825;28;20116;-62
2022/09/15 03:36:27;;;;;;;5.57;1.30;;;;;;;;;;5039334;28;20106;-62
2022/09/15 03:38:54;;;;;;;3.40;0.90;;;14.30;99.90;;;;;;5045337;28;20051;-62
2022/09/15 03:41:20;;;;;;;7.85;1.50;;;14.10;99.90;;;;;;5056003;28;20053;-62
2022/09/15 03:43:45;;;;;;;6.43;1.15;;;14.20;99.90;;;;;;5041174;28;20127;-62
2022/09/15 03:46:11;;;;;;;2.50;1.02;;;14.10;99.90;;;;;;5054638;28;20041;-62
2022/09/15 03:48:39;;;;;;;2.45;0.98;;;14.10;99.90;;;;;;5055973;28;20036;-62
2022/09/15 03:51:05;;;;;;;4.72;0.82;;;14.10;99.90;;;;;;5055930;28;20037;-62
2022/09/15 03:53:33;;;;;;;7.43;1.00;;;14.10;99.90;;;;;;5056002;28;20055;-63
2022/09/15 03:56:25;;;;;;;2.90;1.10;;;14.00;99.90;;;;;;5055755;28;20029;-62
2022/09/15 03:58:51;;;;;;;4.38;0.98;;;13.90;99.90;;;;;;5054629;28;20036;-63
2022/09/15 04:01:17;;;;;;;6.78;1.05;;;14.00;99.90;;;;;;5055712;28;20049;-62
2022/09/15 04:03:44;;;;;;;8.43;1.02;;;14.10;99.90;;;;;;5054542;28;20098;-62
2022/09/15 04:06:10;;;;;;;7.55;1.00;;;;;;;;;;5054219;28;20036;-62
2022/09/15 04:08:35;;;;;;;2.58;1.05;;;13.90;99.90;;;;;;5054283;28;20040;-62
2022/09/15 04:11:05;;;;;;;4.07;1.10;;;14.00;99.90;;;;;;5055450;28;20087;-62
2022/09/15 04:13:31;;;;;;;4.93;1.98;;;14.20;99.90;;;;;;5054717;28;20047;-64
2022/09/15 04:16:01;;;;;;;6.18;1.00;;;13.90;99.90;;;;;;5054033;28;20119;-63
2022/09/15 04:18:28;;;;;;;5.47;1.23;;;13.80;99.90;;;;;;5054470;28;20048;-63
2022/09/15 04:20:57;;;;;;;4.75;0.70;;;13.90;99.90;;;;;;5054629;28;20037;-64
2022/09/15 04:23:23;;;;;;;4.55;1.30;;;13.80;99.90;;;;;;5042795;28;20044;-64
2022/09/15 04:26:00;;;;;;;5.50;1.00;;;13.90;99.90;;;;;;5040662;28;20049;-64
2022/09/15 04:28:27;;;;;;;6.88;1.10;;;13.90;99.90;;;;;;5042168;28;20372;-63
2022/09/15 04:31:01;;;;;;;6.18;1.02;;;13.90;99.90;;;;;;5053957;28;20098;-63
2022/09/15 04:33:27;;;;;;;9.23;2.17;;;13.90;99.90;;;;;;5056846;28;20041;-63
2022/09/15 04:36:00;;;;;;;5.97;0.80;;;13.90;99.90;;;;;;5055199;28;20044;-64
2022/09/15 04:38:27;;;;;;;5.68;1.23;;;13.80;99.90;;;;;;5041256;28;20092;-63
2022/09/15 04:40:54;;;;;;;7.38;1.52;;;13.80;99.90;;;;;;5053743;28;20055;-63
2022/09/15 04:43:20;;;;;;;7.65;1.63;;;13.80;99.90;;;;;;5053527;28;20084;-64
2022/09/15 04:45:45;;;;;;;5.22;1.33;;;13.90;99.90;;;;;;5053769;28;20037;-63
2022/09/15 04:48:11;;;;;;;5.93;1.20;;;14.10;99.90;;;;;;5053664;28;20045;-63
2022/09/15 04:50:36;;;;;;;4.78;1.00;;;14.30;99.90;;;;;;5054746;28;20059;-63
2022/09/15 04:53:02;;;;;;;7.75;2.25;;;14.00;99.90;;;;;;5053457;28;20119;-63
2022/09/15 04:55:30;;;;;;;5.75;1.10;;;14.10;99.90;;;;;;5054559;28;20037;-64
2022/09/15 04:57:56;;;;;;;11.00;2.95;;;14.10;99.90;;;;;;5054829;28;20040;-64
2022/09/15 05:00:22;;;;;;;3.78;1.23;;;14.00;99.90;;;;;;5054447;28;20057;-63
2022/09/15 05:02:48;;;;;;;4.28;1.33;;;13.90;99.90;;;;;;5054745;28;20376;-63
2022/09/15 05:05:14;;;;;;;5.28;1.40;;;14.00;99.90;;;;;;5053433;28;20513;-63
2022/09/15 05:07:39;;;;;;;7.05;1.13;;;13.90;99.90;;;;;;5054420;28;20068;-63
2022/09/15 05:10:06;;;;;;;5.30;1.30;;;14.20;99.90;;;;;;5053327;28;20494;-63
2022/09/15 05:12:31;;;;;;;6.85;1.38;;;14.00;99.90;;;;;;5054419;28;20108;-64
2022/09/15 05:14:57;;;;;;;6.03;1.15;;;13.90;99.90;;;;;;5054471;28;20159;-64
2022/09/15 05:17:23;;;;;;;8.25;1.42;;;14.20;99.90;;;;;;5054723;28;20487;-63
2022/09/15 05:19:48;;;;;;;10.13;1.48;;;14.00;99.90;;;;;;5038985;28;20499;-63
2022/09/15 05:22:14;;;;;;;5.18;1.55;;;13.80;99.90;;;;;;5054133;28;20037;-63
2022/09/15 05:24:39;;;;;;;2.25;1.15;;;14.00;99.90;;;;;;5054018;28;20045;-64
2022/09/15 05:27:05;;;;;;;7.40;1.05;;;14.00;99.90;;;;;;5054020;28;20047;-63
2022/09/15 05:29:30;;;;;;;5.10;1.05;;;13.90;99.90;;;;;;5052687;28;20120;-64
2022/09/15 05:31:56;;;;;;;8.20;2.33;;;13.90;99.90;;;;;;5052793;28;20439;-64
2022/09/15 05:34:21;;;;;;;8.60;1.35;;;14.00;99.90;;;;;;5054035;28;20567;-63
2022/09/15 05:36:47;;;;;;;7.25;1.63;;;13.90;99.90;;;;;;5053912;28;20041;-63
2022/09/15 05:39:12;;;;;;;6.00;1.50;;;13.80;99.90;;;;;;5053817;28;20079;-64
2022/09/15 05:41:38;;;;;;;6.47;1.38;;;14.00;99.90;;;;;;5053932;28;20045;-63
2022/09/15 05:44:03;;;;;;;5.63;1.13;;;14.00;99.90;;;;;;5056918;28;20044;-64
2022/09/15 05:46:29;;;;;;;4.22;1.33;;;13.90;99.90;;;;;;5050656;28;20041;-63
2022/09/15 05:48:56;;;;;;;5.95;1.17;;;14.00;99.90;;;;;;5050015;28;20406;-63
2022/09/15 05:51:22;;;;;;;8.85;1.75;;;;;;;;;;5053603;28;21898;-63
2022/09/15 05:53:49;;;;;;;10.43;1.90;;;13.90;99.90;;;;;;5052308;28;20037;-63
2022/09/15 05:56:16;;;;;;;5.88;1.23;;;13.90;99.90;;;;;;5045610;28;20117;-63
2022/09/15 05:58:44;;;;;;;9.63;1.17;;;14.00;99.90;;;;;;5047712;28;20072;-64
2022/09/15 06:01:21;;;;;;;4.85;1.17;;;13.90;99.90;;;;;;5052204;28;20122;-63
2022/09/15 06:03:47;;;;;;;7.78;1.73;;;13.90;99.90;;;;;;5053479;28;20086;-63
2022/09/15 06:06:13;;;;;;;6.60;1.45;;;14.00;99.90;;;;;;5039726;28;20033;-63
2022/09/15 06:08:45;;;;;;;4.95;1.48;;;14.00;99.90;;;;;;5052009;28;20047;-64
2022/09/15 06:11:14;;;;;;;7.30;1.23;;;14.00;99.90;;;;;;5053341;28;20040;-63
2022/09/15 06:13:40;;;;;;;5.07;1.35;;;13.80;99.90;;;;;;5051953;28;20052;-64
2022/09/15 06:16:09;;;;;;;7.35;1.40;;;14.00;99.90;;;;;;5053427;28;20044;-63
2022/09/15 06:18:36;;;;;;;5.13;1.23;;;14.00;99.90;;;;;;5042131;28;20045;-64
2022/09/15 06:21:13;;;;;;;4.25;1.20;;;14.10;99.90;;;;;;5033932;28;20044;-64
2022/09/15 06:23:40;;;;;;;5.05;1.10;;;14.30;99.90;;;;;;5053246;28;20041;-64
2022/09/15 06:26:08;;;;;;;6.07;1.20;;;14.20;99.90;;;;;;5053143;28;20059;-64
2022/09/15 06:28:34;;;;;;;5.93;1.60;;;14.40;99.90;;;;;;5045023;28;20048;-64
2022/09/15 06:30:59;;;;;;;4.60;1.67;;;14.30;99.90;;;;;;5047361;28;20037;-67
2022/09/15 06:33:26;;;;;;;14.68;2.30;;;14.30;99.90;;;;;;5037652;28;20048;-65
2022/09/15 06:35:51;;;;;;;3.88;0.90;;;14.50;99.90;;;;;;5046946;28;20049;-64
2022/09/15 06:38:17;;;;;;;8.52;1.48;;;14.50;99.90;;;;;;5051505;28;20048;-65
2022/09/15 06:40:44;;;;;;;4.25;0.90;;;14.50;99.90;;;;;;5051480;28;20513;-65
2022/09/15 06:43:09;;;;;;;8.02;1.40;;;14.60;99.90;;;;;;5051399;28;20052;-64
2022/09/15 06:45:35;;;;;;;12.57;2.67;;;14.60;99.90;;;;;;5062207;28;20051;-64
2022/09/15 06:48:01;;;;;;;6.10;1.05;;;14.70;99.90;;;;;;5041823;28;20129;-65
2022/09/15 06:50:27;;;;;;;6.80;1.33;;;14.70;99.90;;;;;;5050048;28;20103;-65
2022/09/15 06:52:52;;;;;;;7.50;1.33;;;14.80;99.90;;;;;;5049722;28;20112;-63
2022/09/15 06:55:18;;;;;;;7.63;1.60;;;;;;;;;;5049607;28;20051;-64
2022/09/15 06:57:44;;;;;;;6.70;1.33;;;;;;;;;;5052997;28;20044;-64
2022/09/15 07:00:10;;;;;;;8.52;0.90;;;14.90;99.90;;;;;;5042699;28;20057;-65
2022/09/15 07:02:36;;;;;;;11.30;1.52;;;14.80;99.90;;;;;;5070454;28;20045;-63
2022/09/15 07:05:02;;;;;;;6.97;1.20;;;15.00;99.90;;;;;;5056464;28;20049;-64
2022/09/15 07:07:28;;;;;;;6.30;1.05;;;15.00;99.90;;;;;;5055715;28;20130;-64
2022/09/15 07:09:53;;;;;;;7.78;1.17;;;15.00;99.90;;;;;;5055638;28;20033;-63
2022/09/15 07:12:19;;;;;;;5.20;1.08;;;15.10;99.90;;;;;;5038256;28;20114;-64
2022/09/15 07:14:44;;;;;;;3.72;1.30;;;15.00;99.90;;;;;;5056385;28;20064;-63
2022/09/15 07:17:10;;;;;;;7.68;1.25;;;15.20;99.90;;;;;;5056630;28;20049;-63
2022/09/15 07:19:37;;;;;;;3.60;1.08;;;15.20;99.90;;;;;;5056136;28;20119;-64
2022/09/15 07:22:03;;;;;;;5.63;1.27;;;15.20;99.90;;;;;;5054564;28;20044;-64
2022/09/15 07:24:28;;;;;;;6.00;1.20;;;15.90;99.90;;;;;;5054881;28;20116;-64
2022/09/15 07:26:54;;;;;;;13.40;1.63;;;15.40;99.90;;;;;;5056192;28;20036;-64
2022/09/15 07:29:19;;;;;;;5.60;0.70;;;15.20;99.90;;;;;;5054907;28;20037;-64
2022/09/15 07:31:45;;;;;;;15.48;3.70;;;15.30;99.90;;;;;;5055046;28;20044;-63
2022/09/15 07:34:10;;;;;;;4.03;1.40;;;15.70;99.90;;;;;;5055937;28;20044;-64
2022/09/15 07:36:36;;;;;;;5.65;1.42;;;15.40;99.90;;;;;;5054608;28;20033;-63
2022/09/15 07:39:03;;;;;;;4.75;0.90;;;15.40;99.90;;;;;;5054704;28;20047;-63
2022/09/15 07:41:30;;;;;;;5.40;1.88;;;16.70;99.90;;;;;;5056076;28;20041;-64
2022/09/15 07:43:57;;;;;;;6.53;1.02;;;15.60;99.90;;;;;;5058656;28;20048;-65
2022/09/15 07:46:24;;;;;;;5.18;1.08;;;15.80;99.90;;;;;;5060805;28;20069;-64
2022/09/15 07:48:52;;;;;;;3.05;0.80;;;15.80;99.90;;;;;;5054542;28;20486;-64
2022/09/15 07:51:18;;;;;;;5.50;1.63;;;15.90;99.90;;;;;;5055975;28;20033;-64
2022/09/15 07:53:46;;;;;;;5.93;0.82;;;15.90;99.90;;;;;;5055792;28;20068;-63
2022/09/15 07:56:12;;;;;;;2.85;0.60;;;16.00;99.90;;;;;;5055946;28;20060;-64
2022/09/15 07:58:38;;;;;;;5.32;1.17;;;16.10;99.90;;;;;;5048412;28;20045;-64
2022/09/15 08:01:06;;;;;;;6.70;1.08;;;16.20;99.90;;;;;;5054080;28;20060;-64
2022/09/15 08:03:31;;;;;;;6.90;1.65;;;16.10;99.90;;;;;;5055561;28;20071;-65
2022/09/15 08:06:01;;;;;;;2.60;0.63;;;16.10;99.90;;;;;;5055337;28;20041;-64
2022/09/15 08:08:28;;;;;;;4.22;1.15;;;16.10;99.90;;;;;;5054233;28;20037;-64
2022/09/15 08:10:54;;;;;;;5.45;0.80;;;16.20;99.90;;;;;;5054450;28;20081;-64
2022/09/15 08:13:19;;;;;;;5.50;1.08;;;16.10;99.90;;;;;;5054146;28;20075;-64
2022/09/15 08:15:46;;;;;;;4.97;0.90;;;16.20;99.90;;;;;;5055184;28;20037;-65
2022/09/15 08:18:12;;;;;;;4.00;1.00;;;16.40;99.90;;;;;;5054934;28;20482;-64
2022/09/15 08:20:39;;;;;;;5.85;0.77;;;16.40;99.90;;;;;;5053838;28;20098;-64
2022/09/15 08:23:05;;;;;;;6.13;0.90;;;16.40;99.90;;;;;;5055314;28;20032;-64
2022/09/15 08:25:30;;;;;;;8.23;1.60;;;16.20;99.90;;;;;;5055228;28;20450;-64
2022/09/15 08:27:58;;;;;;;6.57;0.80;;;16.20;99.90;;;;;;5055074;28;20045;-64
2022/09/15 08:30:25;;;;;;;6.75;1.10;;;16.40;99.90;;;;;;5055132;28;20039;-64
2022/09/15 08:32:51;;;;;;;3.05;0.70;;;16.00;99.90;;;;;;5066052;28;20041;-64
2022/09/15 08:35:17;;;;;;;6.10;0.95;;;16.30;99.90;;;;;;5055055;28;20048;-64
2022/09/15 08:37:43;;;;;;;6.32;0.68;;;16.40;99.90;;;;;;5055112;28;20104;-64
2022/09/15 08:40:16;;;;;;;5.28;0.85;;;16.50;99.90;;;;;;5054913;28;20166;-64
2022/09/15 08:42:43;;;;;;;6.30;0.77;;;16.70;99.90;;;;;;5054961;28;20072;-64
2022/09/15 08:45:23;;;;;;;5.90;1.13;;;16.70;99.90;;;;;;5067001;28;20070;-65
2022/09/15 08:47:54;;;;;;;5.72;0.82;;;16.90;99.90;;;;;;5054917;28;20426;-64
2022/09/15 08:50:31;;;;;;;6.18;0.98;;;17.20;99.90;;;;;;5039409;28;20051;-65
2022/09/15 08:53:02;;;;;;;3.65;0.70;;;17.50;99.90;;;;;;5053548;28;20041;-64
2022/09/15 08:55:51;;;;;;;4.63;0.70;;;17.70;99.90;;;;;;5040581;28;20049;-64
2022/09/15 08:58:25;;;;;;;3.13;0.85;;;17.70;99.90;;;;;;5054276;28;20032;-64
2022/09/15 09:01:01;;;;;;;8.38;1.50;;;17.50;99.90;;;;;;5050973;28;20099;-65
2022/09/15 09:04:04;;;;;;;4.30;1.13;;;18.10;99.90;;;;;;5047287;28;20133;-64
2022/09/15 09:07:00;;;;;;;3.70;0.80;;;18.30;99.90;;;;;;5041700;28;20057;-64
2022/09/15 09:09:37;;;;;;;10.02;1.83;;;18.50;99.90;;;;;;5052981;28;20045;-64
2022/09/15 09:12:35;;;;;;;6.53;1.00;;;18.70;99.90;;;;;;5054040;28;20041;-65
2022/09/15 09:15:14;;;;;;;3.80;0.93;;;18.60;99.90;;;;;;5042838;28;20040;-64
2022/09/15 09:18:01;;;;;;;5.28;1.30;;;18.60;99.90;;;;;;5052598;28;20545;-65
2022/09/15 09:20:32;;;;;;;3.17;0.60;;;18.80;99.90;;;;;;5052985;28;20060;-64
2022/09/15 09:23:00;;;;;;;1.75;0.60;;;18.60;99.90;;;;;;5053940;28;20422;-64
2022/09/15 09:25:26;;;;;;;6.22;1.40;;;18.50;99.90;;;;;;5052919;28;20098;-64
2022/09/15 09:27:52;;;;;;;7.93;0.68;;;18.50;99.90;;;;;;5053733;28;20471;-64
2022/09/15 09:30:21;;;;;;;6.88;1.02;;;18.30;99.90;;;;;;5042479;28;20029;-64
2022/09/15 09:33:11;;;;;;;4.22;0.57;;;18.30;99.90;;;;;;5054156;28;20033;-64
2022/09/15 09:35:47;;;;;;;4.25;0.75;;;18.00;99.90;;;;;;5045849;28;20490;-64
2022/09/15 09:38:19;;;;;;;5.28;0.88;;;18.00;99.90;;;;;;5053419;28;20098;-64
2022/09/15 09:40:45;;;;;;;4.07;0.70;;;18.00;99.90;;;;;;5053802;28;20136;-64
2022/09/15 09:43:11;;;;;;;5.30;0.70;;;18.00;99.90;;;;;;5052918;28;20045;-64
2022/09/15 09:45:37;;;;;;;3.30;0.40;;;18.20;99.90;;;;;;5061586;28;20519;-65
2022/09/15 09:48:22;;;;;;;8.30;1.77;;;18.40;99.90;;;;;;5042983;28;20486;-64
2022/09/15 09:50:49;;;;;;;1.60;0.45;;;17.90;99.90;;;;;;5053842;28;20120;-64
2022/09/15 09:53:32;;;;;;;4.20;0.77;;;18.20;99.90;;;;;;5052349;28;20079;-64
2022/09/15 09:56:16;;;;;;;5.60;0.60;;;18.50;99.90;;;;;;5029949;28;20036;-65
2022/09/15 09:58:42;;;;;;;3.38;0.60;;;18.70;99.90;;;;;;5046226;28;20045;-66
2022/09/15 10:01:14;;;;;;;2.00;0.65;;;18.80;99.90;;;;;;5051989;28;20495;-65
2022/09/15 10:03:42;;;;;;;5.22;0.77;;;18.80;99.90;;;;;;5051872;28;20052;-64
2022/09/15 10:06:13;;;;;;;4.95;0.88;;;18.90;99.90;;;;;;5053138;28;20156;-65
2022/09/15 10:09:04;;;;;;;3.65;0.68;;;18.90;99.90;;;;;;5051118;28;20060;-65
2022/09/15 10:11:40;;;;;;;3.55;0.57;;;19.10;99.90;;;;;;5040701;28;20495;-65
2022/09/15 10:14:11;;;;;;;2.67;0.55;;;19.10;99.90;;;;;;5052968;28;20118;-65
2022/09/15 10:16:36;;;;;;;5.50;0.60;;;18.90;99.90;;;;;;5050662;28;20044;-66
2022/09/15 10:19:02;;;;;;;3.22;0.68;;;19.00;99.90;;;;;;5052032;28;20403;-65
2022/09/15 10:21:27;;;;;;;8.18;1.70;;;19.20;99.90;;;;;;5046152;28;20039;-65
2022/09/15 10:23:53;;;;;;;4.60;0.95;;;18.80;99.90;;;;;;5045131;28;20048;-65
2022/09/15 10:26:32;;;;;;;5.03;0.80;;;18.80;99.90;;;;;;5024900;28;20029;-65
2022/09/15 10:29:12;;;;;;;4.70;0.95;;;18.90;99.90;;;;;;5044370;28;20037;-65
2022/09/15 10:31:38;;;;;;;2.70;0.60;;;18.60;99.90;;;;;;5047096;28;20051;-65
2022/09/15 10:34:29;;;;;;;4.15;0.65;;;18.40;99.90;;;;;;5034047;28;20551;-63
2022/09/15 10:37:06;;;;;;;3.00;0.60;;;18.30;99.90;;;;;;5040668;28;20033;-63
2022/09/15 10:39:48;;;;;;;5.15;0.80;;;18.20;99.90;;;;;;5035664;28;20037;-63
2022/09/15 10:42:41;;;;;;;4.78;0.70;;;18.00;99.90;;;;;;5035078;28;20107;-63
2022/09/15 10:45:23;;;;;;;3.38;0.60;;;18.20;99.90;;;;;;5044948;28;20056;-63
2022/09/15 10:48:06;;;;;;;5.50;0.80;;;19.30;99.90;;;;;;5052796;28;20041;-64
2022/09/15 10:50:54;;;;;;;5.32;0.68;;;18.30;99.90;;;;;;5052706;28;20178;-66
2022/09/15 10:53:39;;;;;;;7.22;0.90;;;18.30;99.90;;;;;;5039375;28;20116;-63
2022/09/15 10:56:23;;;;;;;6.13;1.45;;;18.10;99.90;;;;;;5066370;28;20048;-63
2022/09/15 10:59:03;;;;;;;5.17;1.13;;;18.20;99.90;;;;;;5051395;28;20037;-63
2022/09/15 11:01:29;;;;;;;5.88;0.70;;;18.00;99.90;;;;;;5050472;28;20102;-63
2022/09/15 11:04:19;;;;;;;6.97;0.60;;;18.10;99.90;;;;;;5052183;28;20130;-63
2022/09/15 11:06:53;;;;;;;3.75;1.05;;;18.00;99.90;;;;;;5052560;28;20094;-63
2022/09/15 11:09:28;;;;;;;7.83;1.67;;;18.00;99.90;;;;;;5052610;28;20044;-63
2022/09/15 11:12:06;;;;;;;4.10;0.55;;;18.10;99.90;;;;;;5051290;28;20366;-62
2022/09/15 11:14:49;;;;;;;6.88;0.90;;;18.00;99.90;;;;;;5052495;28;20049;-63
2022/09/15 11:17:46;;;;;;;4.47;0.93;;;18.30;99.90;;;;;;5051073;28;20052;-63
2022/09/15 11:20:33;;;;;;;4.22;0.70;;;18.40;99.90;;;;;;5046834;28;20473;-63
2022/09/15 11:23:08;;;;;;;3.58;0.55;;;18.50;99.90;;;;;;5052381;28;20103;-63
2022/09/15 11:25:42;;;;;;;3.13;0.55;;;18.30;99.90;;;;;;5050948;28;20044;-63
2022/09/15 11:28:33;;;;;;;5.78;0.70;;;18.20;99.90;;;;;;5051189;28;20037;-63
2022/09/15 11:31:06;;;;;;;6.55;0.88;;;18.20;99.90;;;;;;5052907;28;20090;-63
2022/09/15 11:33:41;;;;;;;4.22;0.70;;;18.40;99.90;;;;;;5052571;28;20036;-63
2022/09/15 11:36:06;;;;;;;;;;;18.40;99.90;;;;;;5052550;28;20044;-64
2022/09/15 11:38:51;;;;;;;2.95;0.60;;;18.80;99.90;;;;;;5067808;28;19990;-63
2022/09/15 11:41:29;;;;;;;8.25;0.95;;;18.50;99.90;;;;;;5046356;28;20065;-62
2022/09/15 11:44:17;;;;;;;2.10;0.65;;;18.50;99.90;;;;;;5053571;28;20048;-63
2022/09/15 11:47:20;;;;;;;3.25;0.57;;;18.60;99.90;;;;;;5049304;28;20052;-63
2022/09/15 11:50:04;;;;;;;4.20;0.73;;;18.40;99.90;;;;;;5046603;28;20119;-63
2022/09/15 11:52:49;;;;;;;5.10;0.40;;;18.30;99.90;;;;;;5049414;28;20042;-63
2022/09/15 11:55:37;;;;;;;4.53;0.50;;;18.30;99.90;;;;;;5048672;28;20049;-63
2022/09/15 11:58:33;;;;;;;1.88;0.40;;;18.10;99.90;;;;;;5052051;28;20045;-64
2022/09/15 12:01:26;;;;;;;5.20;0.52;;;18.30;99.90;;;;;;5054396;28;20044;-64
2022/09/15 12:04:01;;;;;;;1.75;0.50;;;18.40;99.90;;;;;;5068068;28;20057;-65
2022/09/15 12:06:48;;;;;;;2.60;0.40;;;18.20;99.90;;;;;;5054658;28;20051;-63
2022/09/15 12:09:16;;;;;;;5.43;1.13;;;18.10;99.90;;;;;;5053188;28;20134;-64
2022/09/15 12:11:48;;;;;;;1.90;0.52;;;18.20;99.90;;;;;;5055386;28;20041;-63
2022/09/15 12:14:31;;;;;;;3.20;0.60;;;18.30;99.90;;;;;;5050352;28;20502;-64
2022/09/15 12:16:58;;;;;;;4.55;0.57;;;18.10;99.90;;;;;;5046188;28;20042;-64
2022/09/15 12:19:52;;;;;;;3.50;0.60;;;18.50;99.90;;;;;;5050578;28;20092;-64
2022/09/15 12:22:37;;;;;;;2.08;0.60;;;18.20;99.90;;;;;;5032780;28;20107;-65
2022/09/15 12:25:08;;;;;;;;;;;18.60;99.90;;;;;;5058715;28;20049;-65
2022/09/15 12:27:34;;;;;;;6.28;0.80;;;18.50;99.90;;;;;;5049714;28;20374;-64
2022/09/15 12:30:00;;;;;;;3.05;0.50;;;18.40;99.90;;;;;;5026244;28;20040;-65
2022/09/15 12:32:33;;;;;;;5.45;0.88;;;18.30;99.90;;;;;;5053596;28;20033;-65
2022/09/15 12:34:59;;;;;;;1.98;0.60;;;18.40;99.90;;;;;;5053298;28;20056;-65
2022/09/15 12:37:33;;;;;;;2.45;0.50;;;18.30;99.90;;;;;;5054536;28;20041;-65
2022/09/15 12:39:58;;;;;;;3.72;0.70;;;18.20;99.90;;;;;;5043131;28;20058;-65
2022/09/15 12:42:28;;;;;;;2.45;0.50;;;17.70;99.90;;;;;;5056240;28;20115;-65
2022/09/15 12:45:00;;;;;;;1.63;0.40;;;17.70;99.90;;;;;;5052313;28;20044;-65
2022/09/15 12:47:38;;;;;;;4.10;0.45;;;17.70;99.90;;;;;;5046363;28;20049;-65
2022/09/15 12:50:13;;;;;;;2.88;1.50;;;17.60;99.90;;;;;;5053921;28;20401;-65
2022/09/15 12:52:47;;;;;;;5.32;0.70;;;17.80;99.90;;;;;;5050186;28;20037;-64
2022/09/15 12:55:22;;;;;;;4.78;0.73;;;17.80;99.90;;;;;;5054376;28;20037;-64
2022/09/15 12:58:09;;;;;;;5.88;0.77;;;17.90;99.90;;;;;;5050711;28;20044;-64
2022/09/15 13:00:36;;;;;;;7.38;0.70;;;17.60;99.90;;;;;;5052646;28;20060;-65
2022/09/15 13:03:04;;;;;;;4.32;0.60;;;17.40;99.90;;;;;;5036200;28;20070;-65
2022/09/15 13:05:42;;;;;;;6.93;1.15;;;17.40;99.90;;;;;;5052613;28;20037;-66
2022/09/15 13:08:14;;;;;;;5.55;1.27;;;17.40;99.90;;;;;;5052752;28;20542;-65
2022/09/15 13:11:00;;;;;;;5.30;0.85;;;17.10;99.90;;;;;;5054389;28;20087;-65
2022/09/15 13:13:52;;;;;;;2.10;0.60;;;16.80;99.90;;;;;;5039714;28;20131;-65